Time;durP1;ratioP1;P1;durP2;ratioP2;P2;SDS_P1;SDS_P2;PMS_P1;PMS_P2;Temp;Humidity;BMP_temperature;BMP_pressure;BME280_temperature;BME280_humidity;BME280_pressure;Samples;Min_cycle;Max_cycle;Signal;HPM_P1;HPM_P2
2023/05/14 00:01:19;;;;;;;21.40;16.08;;;;;;;;;;6158647;23;20017;-84
2023/05/14 00:03:45;;;;;;;22.20;15.18;;;;;;;;;;6134278;23;20080;-84
2023/05/14 00:06:11;;;;;;;21.27;15.45;;;;;;;;;;6158334;23;20051;-84
2023/05/14 00:08:37;;;;;;;23.30;15.38;;;;;;;;;;6159425;23;20436;-84
2023/05/14 00:11:03;;;;;;;25.63;15.70;;;;;;;;;;6159355;23;20056;-84
2023/05/14 00:13:29;;;;;;;22.30;15.45;;;;;;;;;;6134481;23;20024;-83
2023/05/14 00:15:55;;;;;;;21.33;15.80;;;;;;;;;;6133377;23;20028;-84
2023/05/14 00:18:21;;;;;;;20.92;15.07;;;;;;;;;;6185981;23;20032;-84
2023/05/14 00:20:47;;;;;;;21.98;14.65;;;;;;;;;;6158176;23;20016;-84
2023/05/14 00:23:13;;;;;;;22.42;15.45;;;;;;;;;;6185443;23;20035;-84
2023/05/14 00:25:39;;;;;;;23.85;15.05;;;;;;;;;;6185116;23;20021;-84
2023/05/14 00:28:05;;;;;;;23.52;16.10;;;;;;;;;;6158441;23;20039;-83
2023/05/14 00:30:31;;;;;;;21.42;15.35;;;;;;;;;;6159548;23;20017;-84
2023/05/14 00:32:57;;;;;;;25.40;15.88;;;;;;;;;;6158835;23;20048;-84
2023/05/14 00:35:23;;;;;;;19.65;14.93;;;;;;;;;;6185355;23;20360;-84
2023/05/14 00:37:49;;;;;;;21.17;15.48;;;;;;;;;;6185485;23;20028;-84
2023/05/14 00:40:15;;;;;;;19.35;14.85;;;;;;;;;;6134288;23;20028;-84
2023/05/14 00:42:41;;;;;;;26.65;15.88;;;;;;;;;;6159141;23;20448;-85
2023/05/14 00:45:07;;;;;;;21.55;15.13;;;;;;;;;;6184467;23;20089;-84
2023/05/14 00:47:34;;;;;;;17.45;14.38;;;;;;;;;;6134760;23;20092;-84
2023/05/14 00:50:00;;;;;;;21.17;13.65;;;;;;;;;;6134427;23;20071;-84
2023/05/14 00:52:26;;;;;;;18.67;14.43;;;;;;;;;;6158081;23;20139;-84
2023/05/14 00:54:53;;;;;;;18.63;14.60;;;;;;;;;;6134768;23;20320;-84
2023/05/14 00:57:20;;;;;;;25.98;15.27;;;;;;;;;;6159332;23;20088;-84
2023/05/14 00:59:46;;;;;;;18.98;14.25;;;;;;;;;;6158427;23;20013;-84
2023/05/14 01:02:12;;;;;;;19.95;15.50;;;;;;;;;;6185393;23;20389;-84
2023/05/14 01:04:39;;;;;;;21.45;14.40;;;;;;;;;;6158768;23;20345;-84
2023/05/14 01:07:20;;;;;;;19.38;14.52;;;;;;;;;;6184972;23;20028;-84
2023/05/14 01:10:05;;;;;;;20.80;15.27;;;;;;;;;;6133376;23;20009;-84
2023/05/14 01:12:42;;;;;;;20.25;14.77;;;;;;;;;;6185120;23;20013;-84
2023/05/14 01:15:19;;;;;;;22.92;15.05;;;;;;;;;;6157451;23;20040;-84
2023/05/14 01:17:51;;;;;;;28.23;15.73;;;;;;;;;;6157914;23;20017;-84
2023/05/14 01:20:17;;;;;;;20.50;14.88;;;;;;;;;;6184744;23;20040;-84
2023/05/14 01:22:43;;;;;;;19.65;15.02;;;;;;;;;;6159333;23;20013;-83
2023/05/14 01:25:09;;;;;;;23.70;14.23;;;;;;;;;;6134185;23;20013;-84
2023/05/14 01:27:40;;;;;;;22.85;15.27;;;;;;;;;;6185157;23;20124;-84
2023/05/14 01:30:14;;;;;;;18.45;13.80;;;;;;;;;;6185014;23;20017;-84
2023/05/14 01:32:40;;;;;;;21.10;13.65;;;;;;;;;;6158962;23;20013;-84
2023/05/14 01:35:07;;;;;;;18.85;14.38;;;;;;;;;;6133329;23;20059;-84
2023/05/14 01:37:34;;;;;;;20.63;14.38;;;;;;;;;;6158150;23;20054;-83
2023/05/14 01:40:01;;;;;;;16.33;12.95;;;;;;;;;;6133552;23;20075;-85
2023/05/14 01:42:27;;;;;;;18.17;13.07;;;;;;;;;;6184891;23;20060;-84
2023/05/14 01:44:54;;;;;;;22.67;14.48;;;;;;;;;;6158072;23;20291;-83
2023/05/14 01:47:20;;;;;;;22.85;14.73;;;;;;;;;;6133518;23;20028;-84
2023/05/14 01:49:46;;;;;;;17.88;13.60;;;;;;;;;;6157911;23;20468;-84
2023/05/14 01:52:12;;;;;;;18.52;12.90;;;;;;;;;;6132975;23;20009;-84
2023/05/14 01:54:38;;;;;;;24.35;14.10;;;;;;;;;;6133243;23;20084;-84
2023/05/14 01:57:04;;;;;;;18.17;14.05;;;;;;;;;;6157253;23;20024;-84
2023/05/14 01:59:30;;;;;;;19.75;13.05;;;;;;;;;;6133659;23;20092;-84
2023/05/14 02:01:56;;;;;;;19.65;14.15;;;;;;;;;;6133485;23;20083;-83
2023/05/14 02:04:22;;;;;;;19.30;12.00;;;;;;;;;;6133435;23;20091;-84
2023/05/14 02:06:48;;;;;;;13.68;11.60;;;;;;;;;;6158332;23;20321;-84
2023/05/14 02:09:14;;;;;;;15.40;12.00;;;;;;;;;;6157442;23;20069;-83
2023/05/14 02:11:40;;;;;;;18.00;12.98;;;;;;;;;;6132497;23;20391;-84
2023/05/14 02:14:06;;;;;;;16.77;12.85;;;;;;;;;;6157684;23;20044;-84
2023/05/14 02:16:32;;;;;;;17.90;13.88;;;;;;;;;;6157362;23;20009;-83
2023/05/14 02:18:58;;;;;;;17.23;13.15;;;;;;;;;;6158338;23;20544;-84
2023/05/14 02:21:24;;;;;;;20.50;14.80;;;;;;;;;;6183981;23;20096;-84
2023/05/14 02:23:50;;;;;;;20.15;14.25;;;;;;;;;;6157719;23;20021;-84
2023/05/14 02:26:16;;;;;;;20.75;14.68;;;;;;;;;;6156966;23;20068;-84
2023/05/14 02:28:42;;;;;;;21.10;13.93;;;;;;;;;;6158216;23;20317;-84
2023/05/14 02:31:08;;;;;;;18.08;14.05;;;;;;;;;;6133666;23;20015;-84
2023/05/14 02:33:34;;;;;;;21.40;14.73;;;;;;;;;;6157857;23;20091;-84
2023/05/14 02:36:00;;;;;;;20.88;14.73;;;;;;;;;;6158215;23;20067;-84
2023/05/14 02:38:27;;;;;;;22.02;14.57;;;;;;;;;;6158462;23;20013;-84
2023/05/14 02:40:52;;;;;;;18.60;14.32;;;;;;;;;;6157525;23;20047;-84
2023/05/14 02:43:18;;;;;;;17.63;14.05;;;;;;;;;;6183743;23;20013;-84
2023/05/14 02:45:44;;;;;;;21.75;14.55;;;;;;;;;;6184525;23;20017;-83
2023/05/14 02:48:10;;;;;;;18.77;14.55;;;;;;;;;;6157819;23;20021;-84
2023/05/14 02:50:36;;;;;;;24.30;16.50;;;;;;;;;;6157428;23;20391;-84
2023/05/14 02:53:02;;;;;;;27.52;15.48;;;;;;;;;;6132809;23;20020;-84
2023/05/14 02:55:28;;;;;;;22.35;14.77;;;;;;;;;;6132761;23;20013;-83
2023/05/14 02:57:55;;;;;;;20.10;14.88;;;;;;;;;;6133289;23;20143;-84
2023/05/14 03:00:21;;;;;;;22.25;14.45;;;;;;;;;;6157961;23;20044;-84
2023/05/14 03:02:47;;;;;;;19.17;13.70;;;;;;;;;;6157971;23;20101;-84
2023/05/14 03:05:13;;;;;;;23.33;14.98;;;;;;;;;;6157431;23;20405;-84
2023/05/14 03:07:39;;;;;;;17.27;13.43;;;;;;;;;;6132644;23;20452;-84
2023/05/14 03:10:06;;;;;;;23.20;15.38;;;;;;;;;;6157066;23;20013;-83
2023/05/14 03:12:32;;;;;;;23.17;14.85;;;;;;;;;;6132663;23;20083;-84
2023/05/14 03:14:58;;;;;;;21.00;13.43;;;;;;;;;;6157830;23;20051;-84
2023/05/14 03:17:24;;;;;;;18.58;12.90;;;;;;;;;;6133006;23;20379;-83
2023/05/14 03:19:50;;;;;;;18.52;12.90;;;;;;;;;;6184047;23;20096;-83
2023/05/14 03:22:16;;;;;;;20.80;14.88;;;;;;;;;;6183772;23;20009;-84
2023/05/14 03:24:42;;;;;;;23.95;15.15;;;;;;;;;;6157141;23;20408;-84
2023/05/14 03:27:08;;;;;;;21.83;15.15;;;;;;;;;;6133062;23;20020;-84
2023/05/14 03:29:34;;;;;;;19.17;13.65;;;;;;;;;;6157584;23;20386;-83
2023/05/14 03:32:00;;;;;;;22.33;14.98;;;;;;;;;;6157188;23;20077;-84
2023/05/14 03:34:26;;;;;;;18.67;13.57;;;;;;;;;;6184025;23;20418;-84
2023/05/14 03:36:52;;;;;;;22.83;13.90;;;;;;;;;;6157245;23;20009;-83
2023/05/14 03:39:18;;;;;;;25.27;14.68;;;;;;;;;;6157317;23;20059;-84
2023/05/14 03:41:47;;;;;;;21.95;15.35;;;;;;;;;;6157181;23;20013;-84
2023/05/14 03:44:14;;;;;;;24.40;15.23;;;;;;;;;;6157308;23;20013;-83
2023/05/14 03:46:40;;;;;;;21.52;14.40;;;;;;;;;;6157580;23;20321;-84
2023/05/14 03:49:06;;;;;;;18.85;14.07;;;;;;;;;;6158954;23;20020;-84
2023/05/14 03:51:32;;;;;;;17.15;12.65;;;;;;;;;;6133923;23;20052;-83
2023/05/14 03:53:58;;;;;;;23.83;14.80;;;;;;;;;;6184606;23;20013;-83
2023/05/14 03:56:25;;;;;;;18.50;14.10;;;;;;;;;;6158801;23;20059;-84
2023/05/14 03:58:51;;;;;;;16.73;13.15;;;;;;;;;;6134065;23;20056;-84
2023/05/14 04:01:17;;;;;;;19.20;13.90;;;;;;;;;;6159177;23;20431;-84
2023/05/14 04:03:43;;;;;;;18.73;13.50;;;;;;;;;;6185825;23;20336;-84
2023/05/14 04:06:09;;;;;;;17.92;14.57;;;;;;;;;;6158822;23;20045;-84
2023/05/14 04:08:35;;;;;;;17.50;14.02;;;;;;;;;;6158176;23;20020;-83
2023/05/14 04:11:01;;;;;;;19.73;13.27;;;;;;;;;;6134104;23;20071;-84
2023/05/14 04:13:27;;;;;;;18.50;13.10;;;;;;;;;;6158710;23;20016;-84
2023/05/14 04:15:53;;;;;;;16.85;13.23;;;;;;;;;;6158957;23;20032;-84
2023/05/14 04:18:19;;;;;;;20.55;14.80;;;;;;;;;;6134260;23;20089;-83
2023/05/14 04:20:45;;;;;;;20.08;13.82;;;;;;;;;;6158754;23;20095;-84
2023/05/14 04:23:11;;;;;;;23.15;15.07;;;;;;;;;;6157544;23;20085;-84
2023/05/14 04:25:37;;;;;;;23.83;15.30;;;;;;;;;;6134362;23;20024;-83
2023/05/14 04:28:03;;;;;;;27.35;15.00;;;;;;;;;;6134077;23;20020;-84
2023/05/14 04:30:29;;;;;;;23.50;14.75;;;;;;;;;;6133996;23;20009;-84
2023/05/14 04:32:55;;;;;;;25.13;14.73;;;;;;;;;;6185643;23;20039;-84
2023/05/14 04:35:21;;;;;;;22.02;15.30;;;;;;;;;;6185466;23;20009;-84
2023/05/14 04:37:48;;;;;;;26.67;16.48;;;;;;;;;;6158410;23;20140;-84
2023/05/14 04:40:15;;;;;;;24.95;16.55;;;;;;;;;;6158258;23;20013;-84
2023/05/14 04:42:42;;;;;;;28.38;16.55;;;;;;;;;;6134112;23;20428;-85
2023/05/14 04:45:08;;;;;;;26.55;15.88;;;;;;;;;;6158431;23;20017;-84
2023/05/14 04:47:34;;;;;;;25.50;16.25;;;;;;;;;;6159340;23;20017;-83
2023/05/14 04:50:00;;;;;;;28.80;16.17;;;;;;;;;;6159307;23;20100;-84
2023/05/14 04:52:26;;;;;;;26.02;16.33;;;;;;;;;;6157968;23;20013;-84
2023/05/14 04:54:53;;;;;;;24.77;15.68;;;;;;;;;;6186014;23;20013;-84
2023/05/14 04:57:19;;;;;;;24.35;14.82;;;;;;;;;;6185392;23;20015;-84
2023/05/14 04:59:45;;;;;;;24.48;15.95;;;;;;;;;;6185960;23;20027;-84
2023/05/14 05:02:11;;;;;;;27.35;14.77;;;;;;;;;;6158879;23;20028;-84
2023/05/14 05:04:38;;;;;;;22.15;15.68;;;;;;;;;;6158469;23;20021;-84
2023/05/14 05:07:04;;;;;;;24.70;15.57;;;;;;;;;;6184254;23;20336;-84
2023/05/14 05:09:31;;;;;;;25.70;14.95;;;;;;;;;;6157151;23;20017;-84
2023/05/14 05:11:57;;;;;;;28.42;15.95;;;;;;;;;;6158200;23;20048;-84
2023/05/14 05:14:23;;;;;;;27.50;16.20;;;;;;;;;;6133300;23;20005;-83
2023/05/14 05:16:50;;;;;;;26.05;14.75;;;;;;;;;;6184280;23;20028;-83
2023/05/14 05:19:16;;;;;;;24.92;14.90;;;;;;;;;;6184571;23;20013;-84
2023/05/14 05:21:42;;;;;;;27.30;15.48;;;;;;;;;;6184067;23;20277;-84
2023/05/14 05:24:08;;;;;;;26.33;15.55;;;;;;;;;;6157917;23;20357;-83
2023/05/14 05:26:37;;;;;;;26.00;16.42;;;;;;;;;;6133057;23;20024;-84
2023/05/14 05:29:03;;;;;;;25.30;14.68;;;;;;;;;;6132612;23;20017;-83
2023/05/14 05:31:30;;;;;;;29.52;15.85;;;;;;;;;;6157276;23;20501;-82
2023/05/14 05:33:59;;;;;;;27.25;14.98;;;;;;;;;;6157351;23;20020;-83
2023/05/14 05:36:25;;;;;;;21.27;13.73;;;;;;;;;;6157816;23;20135;-84
2023/05/14 05:38:51;;;;;;;27.67;14.13;;;;;;;;;;6157895;23;20028;-82
2023/05/14 05:41:17;;;;;;;22.13;13.15;;;;;;;;;;6132923;23;20019;-84
2023/05/14 05:43:43;;;;;;;22.42;12.80;;;;;;;;;;6183714;23;20083;-83
2023/05/14 05:46:09;;;;;;;26.40;12.73;;;;;;;;;;6183982;23;20340;-83
2023/05/14 05:48:35;;;;;;;23.20;12.98;;;;;;;;;;6157182;23;20092;-83
2023/05/14 05:51:01;;;;;;;19.73;10.93;;;;;;;;;;6182809;23;20017;-84
2023/05/14 05:53:27;;;;;;;21.85;11.25;;;;;;;;;;6183268;23;20333;-83
2023/05/14 05:55:53;;;;;;;20.35;10.60;;;;;;;;;;6157447;23;20013;-84
2023/05/14 05:58:19;;;;;;;21.80;11.00;;;;;;;;;;6184478;23;20019;-84
2023/05/14 06:00:48;;;;;;;22.08;9.95;;;;;;;;;;6183689;23;20032;-83
2023/05/14 06:03:14;;;;;;;18.80;10.10;;;;;;;;;;6183974;23;20013;-83
2023/05/14 06:05:40;;;;;;;16.45;9.15;;;;;;;;;;6131976;23;20025;-84
2023/05/14 06:08:06;;;;;;;20.48;9.90;;;;;;;;;;6157649;23;20151;-84
2023/05/14 06:10:33;;;;;;;15.65;8.50;;;;;;;;;;6157289;23;20063;-84
2023/05/14 06:12:59;;;;;;;16.02;8.30;;;;;;;;;;6156965;23;20017;-84
2023/05/14 06:15:25;;;;;;;17.58;8.15;;;;;;;;;;6156224;23;20452;-84
2023/05/14 06:17:51;;;;;;;18.38;7.32;;;;;;;;;;6131413;23;20088;-84
2023/05/14 06:20:17;;;;;;;18.85;7.45;;;;;;;;;;6130870;23;20009;-84
2023/05/14 06:22:43;;;;;;;19.23;7.03;;;;;;;;;;6156070;23;20512;-85
2023/05/14 06:25:09;;;;;;;13.48;6.35;;;;;;;;;;6155906;23;20075;-83
2023/05/14 06:27:35;;;;;;;18.13;6.45;;;;;;;;;;6155647;23;20024;-84
2023/05/14 06:30:01;;;;;;;17.63;6.28;;;;;;;;;;6155455;23;20017;-81
2023/05/14 06:32:27;;;;;;;18.50;6.25;;;;;;;;;;6155823;23;20013;-81
2023/05/14 06:34:53;;;;;;;14.77;5.82;;;;;;;;;;6155393;23;20483;-81
2023/05/14 06:37:19;;;;;;;16.83;4.97;;;;;;;;;;6182652;23;20454;-84
2023/05/14 06:39:48;;;;;;;13.68;5.68;;;;;;;;;;6131281;23;20017;-85
2023/05/14 06:42:15;;;;;;;17.55;5.88;;;;;;;;;;6156268;23;20399;-85
2023/05/14 06:44:41;;;;;;;15.75;5.93;;;;;;;;;;6155830;23;20009;-85
2023/05/14 06:47:07;;;;;;;12.73;5.38;;;;;;;;;;6155770;23;20051;-84
2023/05/14 06:49:34;;;;;;;12.00;5.18;;;;;;;;;;6131732;23;20017;-85
2023/05/14 06:52:00;;;;;;;18.38;5.55;;;;;;;;;;6131947;23;20295;-85
2023/05/14 06:54:26;;;;;;;14.25;5.65;;;;;;;;;;6182396;23;20021;-84
2023/05/14 06:56:52;;;;;;;14.18;5.43;;;;;;;;;;6156245;23;20009;-84
2023/05/14 06:59:18;;;;;;;17.10;5.85;;;;;;;;;;6155457;23;20027;-85
2023/05/14 07:01:44;;;;;;;16.00;5.53;;;;;;;;;;6181995;23;20273;-84
2023/05/14 07:04:10;;;;;;;16.25;5.90;;;;;;;;;;6155752;23;20104;-85
2023/05/14 07:06:36;;;;;;;13.80;5.90;;;;;;;;;;6131573;23;20301;-85
2023/05/14 07:09:02;;;;;;;17.02;6.85;;;;;;;;;;6155947;23;20013;-85
2023/05/14 07:11:28;;;;;;;16.60;6.45;;;;;;;;;;6182476;23;20020;-84
2023/05/14 07:13:54;;;;;;;16.80;6.75;;;;;;;;;;6130895;23;20009;-84
2023/05/14 07:16:20;;;;;;;16.55;5.72;;;;;;;;;;6150133;23;20317;-84
2023/05/14 07:18:46;;;;;;;15.48;5.85;;;;;;;;;;6152643;23;20017;-85
2023/05/14 07:21:12;;;;;;;13.43;5.25;;;;;;;;;;6150660;23;20035;-85
2023/05/14 07:23:38;;;;;;;17.75;5.95;;;;;;;;;;6152805;23;20421;-85
2023/05/14 07:26:04;;;;;;;13.57;5.90;;;;;;;;;;6152855;23;20013;-85
2023/05/14 07:28:31;;;;;;;11.27;5.30;;;;;;;;;;6152565;23;20024;-85
2023/05/14 07:30:57;;;;;;;13.88;4.90;;;;;;;;;;6152402;23;20341;-85
2023/05/14 07:33:23;;;;;;;12.73;5.72;;;;;;;;;;6154559;23;20294;-85
2023/05/14 07:35:49;;;;;;;13.65;5.57;;;;;;;;;;6154557;23;20333;-85
2023/05/14 07:38:16;;;;;;;10.00;4.90;;;;;;;;;;6152642;23;20013;-85
2023/05/14 07:40:42;;;;;;;14.10;5.28;;;;;;;;;;6152338;23;20021;-85
2023/05/14 07:43:08;;;;;;;15.25;5.28;;;;;;;;;;6152465;23;20048;-85
2023/05/14 07:45:35;;;;;;;13.02;4.22;;;;;;;;;;6127564;23;20044;-85
2023/05/14 07:48:01;;;;;;;13.07;5.40;;;;;;;;;;6152552;23;20053;-85
2023/05/14 07:50:27;;;;;;;9.02;4.78;;;;;;;;;;6152545;23;20021;-85
2023/05/14 07:52:53;;;;;;;13.55;5.35;;;;;;;;;;6152886;23;20020;-85
2023/05/14 07:55:19;;;;;;;10.18;4.07;;;;;;;;;;6127834;23;20021;-85
2023/05/14 07:57:46;;;;;;;18.15;6.05;;;;;;;;;;6127774;23;20032;-85
2023/05/14 08:00:12;;;;;;;14.75;4.97;;;;;;;;;;6153422;23;20459;-85
2023/05/14 08:02:38;;;;;;;13.40;4.80;;;;;;;;;;6152963;23;20017;-85
2023/05/14 08:05:04;;;;;;;10.07;4.57;;;;;;;;;;6153960;23;20025;-85
2023/05/14 08:07:30;;;;;;;15.35;4.68;;;;;;;;;;6152354;23;20504;-85
2023/05/14 08:09:56;;;;;;;13.73;4.90;;;;;;;;;;6127469;23;20097;-85
2023/05/14 08:12:22;;;;;;;12.10;4.78;;;;;;;;;;6127798;23;20052;-85
2023/05/14 08:14:48;;;;;;;16.88;5.45;;;;;;;;;;6127207;23;20013;-85
2023/05/14 08:17:15;;;;;;;11.77;5.18;;;;;;;;;;6176046;23;20045;-85
2023/05/14 08:19:41;;;;;;;13.07;4.68;;;;;;;;;;6157045;23;20028;-85
2023/05/14 08:22:07;;;;;;;13.30;5.13;;;;;;;;;;6183849;23;20013;-85
2023/05/14 08:24:33;;;;;;;16.30;5.43;;;;;;;;;;6157085;23;20035;-85
2023/05/14 08:26:59;;;;;;;12.30;5.10;;;;;;;;;;6132580;23;20015;-85
2023/05/14 08:29:25;;;;;;;12.05;5.20;;;;;;;;;;6131749;23;20088;-85
2023/05/14 08:31:51;;;;;;;11.50;4.85;;;;;;;;;;6132588;23;20055;-84
2023/05/14 08:34:17;;;;;;;14.00;5.60;;;;;;;;;;6132338;23;20313;-84
2023/05/14 08:36:43;;;;;;;13.50;5.28;;;;;;;;;;6132344;23;20009;-84
2023/05/14 08:39:09;;;;;;;14.40;4.80;;;;;;;;;;6156751;23;20064;-84
2023/05/14 08:41:36;;;;;;;13.18;5.15;;;;;;;;;;6132098;23;20105;-85
2023/05/14 08:44:02;;;;;;;12.68;5.55;;;;;;;;;;6156285;23;20017;-85
2023/05/14 08:46:30;;;;;;;12.45;5.55;;;;;;;;;;6132296;23;20317;-85
2023/05/14 08:49:00;;;;;;;14.30;5.22;;;;;;;;;;6157252;23;20009;-85
2023/05/14 08:51:26;;;;;;;9.43;5.13;;;;;;;;;;6183518;23;20126;-86
2023/05/14 08:53:52;;;;;;;10.80;5.68;;;;;;;;;;6183400;23;20355;-85
2023/05/14 08:56:18;;;;;;;12.32;5.53;;;;;;;;;;6157017;23;20084;-85
2023/05/14 08:58:44;;;;;;;13.35;5.50;;;;;;;;;;6155970;23;20097;-85
2023/05/14 09:01:11;;;;;;;11.43;5.72;;;;;;;;;;6157023;23;20042;-84
2023/05/14 09:03:37;;;;;;;14.90;5.72;;;;;;;;;;6156761;23;20017;-85
2023/05/14 09:06:03;;;;;;;10.45;5.05;;;;;;;;;;6183395;23;20040;-84
2023/05/14 09:08:29;;;;;;;13.07;5.63;;;;;;;;;;6131497;23;20108;-85
2023/05/14 09:10:55;;;;;;;15.25;6.15;;;;;;;;;;6131754;23;20060;-85
2023/05/14 09:13:21;;;;;;;13.35;5.20;;;;;;;;;;6155819;23;20348;-85
2023/05/14 09:15:50;;;;;;;14.85;5.00;;;;;;;;;;6155977;23;20036;-85
2023/05/14 09:18:16;;;;;;;12.05;5.05;;;;;;;;;;6132042;23;20122;-86
2023/05/14 09:20:42;;;;;;;11.05;5.53;;;;;;;;;;6156326;23;20016;-85
2023/05/14 09:23:08;;;;;;;11.48;5.50;;;;;;;;;;6131470;23;20040;-85
2023/05/14 09:25:34;;;;;;;13.73;6.35;;;;;;;;;;6156229;23;20017;-85
2023/05/14 09:28:05;;;;;;;9.45;5.00;;;;;;;;;;6130983;23;20017;-85
2023/05/14 09:30:33;;;;;;;15.43;5.13;;;;;;;;;;6156684;23;20066;-85
2023/05/14 09:33:00;;;;;;;12.65;6.55;;;;;;;;;;6131972;23;20421;-84
2023/05/14 09:35:26;;;;;;;13.43;6.70;;;;;;;;;;6156324;23;20013;-81
2023/05/14 09:37:53;;;;;;;18.15;6.40;;;;;;;;;;6156594;23;20029;-82
2023/05/14 09:40:20;;;;;;;12.07;6.25;;;;;;;;;;6155892;23;20021;-82
2023/05/14 09:42:47;;;;;;;11.23;6.70;;;;;;;;;;6155392;23;20017;-82
2023/05/14 09:45:13;;;;;;;13.30;6.55;;;;;;;;;;6130880;23;20019;-81
2023/05/14 09:47:40;;;;;;;12.70;6.40;;;;;;;;;;6156190;23;20564;-82
2023/05/14 09:50:06;;;;;;;11.18;6.43;;;;;;;;;;6131797;23;20017;-84
2023/05/14 09:52:32;;;;;;;12.25;6.80;;;;;;;;;;6156334;23;20020;-83
2023/05/14 09:54:59;;;;;;;14.35;7.32;;;;;;;;;;6182718;23;20044;-83
2023/05/14 09:57:25;;;;;;;13.82;7.13;;;;;;;;;;6155302;23;20013;-83
2023/05/14 09:59:52;;;;;;;12.30;6.63;;;;;;;;;;6182845;23;20019;-81
2023/05/14 10:02:23;;;;;;;12.15;7.22;;;;;;;;;;6133399;23;20017;-81
2023/05/14 10:04:50;;;;;;;11.30;6.43;;;;;;;;;;6156879;23;20021;-80
2023/05/14 10:07:18;;;;;;;12.30;7.07;;;;;;;;;;6131966;23;20290;-81
2023/05/14 10:09:45;;;;;;;12.55;7.13;;;;;;;;;;6132102;23;20347;-81
2023/05/14 10:12:12;;;;;;;10.68;6.50;;;;;;;;;;6131844;23;20379;-80
2023/05/14 10:14:40;;;;;;;12.65;6.53;;;;;;;;;;6157139;23;20067;-81
2023/05/14 10:17:16;;;;;;;16.42;7.03;;;;;;;;;;6131886;23;20021;-80
2023/05/14 10:19:43;;;;;;;15.98;6.40;;;;;;;;;;6132327;23;20388;-80
2023/05/14 10:22:10;;;;;;;14.23;6.03;;;;;;;;;;6157014;23;20009;-80
2023/05/14 10:24:37;;;;;;;12.05;6.57;;;;;;;;;;6131744;23;20017;-80
2023/05/14 10:27:04;;;;;;;13.18;6.38;;;;;;;;;;6132842;23;20017;-81
2023/05/14 10:29:34;;;;;;;7.78;5.53;;;;;;;;;;6132808;23;20021;-82
2023/05/14 10:32:04;;;;;;;7.32;5.32;;;;;;;;;;6132371;23;20016;-79
2023/05/14 10:34:40;;;;;;;10.50;5.88;;;;;;;;;;6157464;23;20005;-80
2023/05/14 10:37:07;;;;;;;11.95;6.60;;;;;;;;;;6157190;23;20066;-80
2023/05/14 10:39:40;;;;;;;11.85;6.25;;;;;;;;;;6133095;23;20070;-80
2023/05/14 10:42:06;;;;;;;10.63;6.25;;;;;;;;;;6139123;23;20013;-80
2023/05/14 10:44:35;;;;;;;10.07;6.28;;;;;;;;;;6133025;23;20031;-80
2023/05/14 10:47:01;;;;;;;10.73;5.43;;;;;;;;;;6132700;23;20019;-80
2023/05/14 10:49:27;;;;;;;8.32;5.47;;;;;;;;;;6136027;23;20072;-82
2023/05/14 10:51:55;;;;;;;11.38;5.35;;;;;;;;;;6159553;23;20055;-80
2023/05/14 10:54:22;;;;;;;7.47;4.65;;;;;;;;;;6135173;23;20013;-80
2023/05/14 10:56:48;;;;;;;9.55;4.20;;;;;;;;;;6134047;23;20009;-81
2023/05/14 10:59:17;;;;;;;9.63;4.32;;;;;;;;;;6188703;23;20021;-80
2023/05/14 11:01:44;;;;;;;8.85;4.43;;;;;;;;;;6136262;23;20337;-81
2023/05/14 11:04:17;;;;;;;10.25;5.30;;;;;;;;;;6136231;23;20023;-80
2023/05/14 11:06:44;;;;;;;7.97;4.97;;;;;;;;;;6163601;23;20013;-80
2023/05/14 11:09:12;;;;;;;10.30;5.82;;;;;;;;;;6189559;23;20435;-81
2023/05/14 11:11:38;;;;;;;13.10;6.05;;;;;;;;;;6163925;23;20012;-81
2023/05/14 11:14:04;;;;;;;11.73;5.72;;;;;;;;;;6140300;23;20097;-82
2023/05/14 11:16:30;;;;;;;10.48;5.80;;;;;;;;;;6161574;23;20017;-79
2023/05/14 11:19:03;;;;;;;9.40;5.10;;;;;;;;;;6135253;23;20483;-80
2023/05/14 11:21:31;;;;;;;12.65;5.28;;;;;;;;;;6186389;23;20013;-79
2023/05/14 11:23:59;;;;;;;11.07;4.57;;;;;;;;;;6159467;23;20017;-80
2023/05/14 11:26:25;;;;;;;5.32;3.83;;;;;;;;;;6135470;23;20017;-79
2023/05/14 11:28:51;;;;;;;6.72;3.90;;;;;;;;;;6159485;23;20024;-80
2023/05/14 11:31:18;;;;;;;6.00;4.15;;;;;;;;;;6185951;23;20083;-80
2023/05/14 11:33:44;;;;;;;9.30;4.15;;;;;;;;;;6135154;23;20017;-79
2023/05/14 11:36:11;;;;;;;9.40;4.55;;;;;;;;;;6135204;23;20334;-79
2023/05/14 11:38:50;;;;;;;13.15;5.35;;;;;;;;;;6159642;23;20047;-80
2023/05/14 11:41:16;;;;;;;8.10;3.92;;;;;;;;;;6160297;23;20013;-80
2023/05/14 11:43:42;;;;;;;9.23;4.45;;;;;;;;;;6186347;23;20017;-80
2023/05/14 11:46:16;;;;;;;7.65;4.50;;;;;;;;;;6186464;23;20013;-80
2023/05/14 11:48:42;;;;;;;8.82;4.47;;;;;;;;;;6160314;23;20013;-80
2023/05/14 11:51:08;;;;;;;6.10;3.80;;;;;;;;;;6135340;23;20021;-80
2023/05/14 11:53:34;;;;;;;10.55;4.30;;;;;;;;;;6134835;23;20095;-80
2023/05/14 11:56:01;;;;;;;9.73;3.58;;;;;;;;;;6135000;23;20033;-80
2023/05/14 11:58:32;;;;;;;8.90;3.72;;;;;;;;;;6159743;23;20066;-80
2023/05/14 12:00:58;;;;;;;7.22;4.00;;;;;;;;;;6160030;23;20476;-79
2023/05/14 12:03:25;;;;;;;9.13;3.60;;;;;;;;;;6135058;23;20036;-80
2023/05/14 12:05:58;;;;;;;10.85;4.43;;;;;;;;;;6160151;23;20067;-80
2023/05/14 12:08:29;;;;;;;6.45;4.20;;;;;;;;;;6133365;23;20022;-79
2023/05/14 12:10:55;;;;;;;10.60;3.80;;;;;;;;;;6133881;23;20395;-81
2023/05/14 12:13:25;;;;;;;6.82;3.33;;;;;;;;;;6133450;23;20009;-79
2023/05/14 12:15:55;;;;;;;7.15;3.40;;;;;;;;;;6184651;23;20020;-80
2023/05/14 12:18:22;;;;;;;6.22;3.53;;;;;;;;;;6133655;23;20326;-79
2023/05/14 12:20:50;;;;;;;6.63;3.95;;;;;;;;;;6157993;23;20056;-79
2023/05/14 12:23:16;;;;;;;10.27;3.65;;;;;;;;;;6158194;23;20016;-80
2023/05/14 12:25:51;;;;;;;8.95;3.65;;;;;;;;;;6139138;23;20051;-82
2023/05/14 12:28:18;;;;;;;6.88;3.65;;;;;;;;;;6163891;23;20010;-82
2023/05/14 12:30:45;;;;;;;6.43;3.38;;;;;;;;;;6161895;23;20013;-83
2023/05/14 12:33:11;;;;;;;8.00;3.40;;;;;;;;;;6191141;23;20379;-82
2023/05/14 12:35:37;;;;;;;5.15;3.10;;;;;;;;;;6163788;23;20071;-83
2023/05/14 12:38:03;;;;;;;9.50;3.80;;;;;;;;;;6140166;23;20013;-83
2023/05/14 12:40:29;;;;;;;6.28;3.45;;;;;;;;;;6138283;23;20345;-83
2023/05/14 12:42:55;;;;;;;8.90;3.70;;;;;;;;;;6160031;23;20337;-82
2023/05/14 12:45:21;;;;;;;7.25;3.17;;;;;;;;;;6139747;23;20023;-84
2023/05/14 12:47:47;;;;;;;10.48;3.15;;;;;;;;;;6141131;23;20096;-83
2023/05/14 12:50:14;;;;;;;8.05;3.20;;;;;;;;;;6142711;23;20522;-83
2023/05/14 12:52:40;;;;;;;6.20;3.28;;;;;;;;;;6140648;23;20025;-84
2023/05/14 12:55:07;;;;;;;8.65;3.40;;;;;;;;;;6164855;23;20297;-83
2023/05/14 12:57:34;;;;;;;5.80;2.80;;;;;;;;;;6166018;23;20510;-82
2023/05/14 13:00:00;;;;;;;6.65;3.00;;;;;;;;;;6165849;23;20040;-84
2023/05/14 13:02:26;;;;;;;7.75;3.40;;;;;;;;;;6164865;23;20013;-84
2023/05/14 13:04:52;;;;;;;8.30;3.20;;;;;;;;;;6134469;23;20116;-83
2023/05/14 13:07:18;;;;;;;9.82;3.00;;;;;;;;;;6137669;23;20013;-83
2023/05/14 13:09:44;;;;;;;11.60;3.95;;;;;;;;;;6136687;23;20543;-81
2023/05/14 13:12:10;;;;;;;6.05;2.92;;;;;;;;;;6162138;23;20017;-82
2023/05/14 13:14:36;;;;;;;6.68;2.95;;;;;;;;;;6167021;23;20020;-83
2023/05/14 13:17:03;;;;;;;4.68;3.03;;;;;;;;;;6163970;23;20013;-84
2023/05/14 13:19:32;;;;;;;13.63;3.10;;;;;;;;;;6130326;23;20040;-84
2023/05/14 13:21:58;;;;;;;5.75;3.20;;;;;;;;;;6155273;23;20317;-84
2023/05/14 13:24:25;;;;;;;7.55;3.85;;;;;;;;;;6181533;23;20072;-80
2023/05/14 13:26:51;;;;;;;9.48;3.22;;;;;;;;;;6154318;23;20052;-82
2023/05/14 13:29:17;;;;;;;7.57;3.40;;;;;;;;;;6130342;23;20024;-83
2023/05/14 13:31:43;;;;;;;8.43;2.85;;;;;;;;;;6155511;23;20135;-83
2023/05/14 13:34:09;;;;;;;7.07;3.03;;;;;;;;;;6128599;23;20067;-83
2023/05/14 13:36:38;;;;;;;9.68;2.83;;;;;;;;;;6181620;23;20013;-82
2023/05/14 13:39:08;;;;;;;10.20;2.80;;;;;;;;;;6130190;23;20013;-83
2023/05/14 13:41:34;;;;;;;15.73;3.00;;;;;;;;;;6180442;23;20028;-83
2023/05/14 13:44:03;;;;;;;6.95;3.58;;;;;;;;;;6130024;23;20023;-82
2023/05/14 13:46:29;;;;;;;6.05;2.63;;;;;;;;;;6129977;23;20024;-82
2023/05/14 13:48:55;;;;;;;10.43;2.90;;;;;;;;;;6178120;23;20047;-82
2023/05/14 13:51:22;;;;;;;8.25;3.20;;;;;;;;;;6129255;23;20071;-83
2023/05/14 13:53:48;;;;;;;9.52;3.00;;;;;;;;;;6129536;23;20021;-82
2023/05/14 13:56:14;;;;;;;4.80;2.72;;;;;;;;;;6154627;23;20013;-84
2023/05/14 13:58:40;;;;;;;9.57;3.20;;;;;;;;;;6131211;23;20013;-82
2023/05/14 14:01:06;;;;;;;7.70;2.80;;;;;;;;;;6156133;23;20083;-81
2023/05/14 14:03:32;;;;;;;6.57;3.00;;;;;;;;;;6130788;23;20100;-81
2023/05/14 14:05:58;;;;;;;7.20;2.88;;;;;;;;;;6156401;23;20313;-81
2023/05/14 14:08:24;;;;;;;5.28;2.90;;;;;;;;;;6127191;23;20013;-81
2023/05/14 14:10:50;;;;;;;4.40;2.90;;;;;;;;;;6129359;23;20019;-80
2023/05/14 14:13:16;;;;;;;6.13;2.90;;;;;;;;;;6154833;23;20013;-80
2023/05/14 14:15:42;;;;;;;5.80;3.00;;;;;;;;;;6180340;23;20472;-81
2023/05/14 14:18:08;;;;;;;5.95;3.05;;;;;;;;;;6130715;23;20013;-82
2023/05/14 14:20:35;;;;;;;6.40;2.88;;;;;;;;;;6131146;23;20047;-82
2023/05/14 14:23:01;;;;;;;6.65;2.70;;;;;;;;;;6182630;23;20012;-85